createdAt,value
2018-07-28T00:01:17.416Z,99094.77
2018-07-28T00:03:56.181Z,99111.99
2018-07-28T00:06:29.532Z,99110.98
2018-07-28T00:09:11.437Z,99102.73
2018-07-28T00:11:44.771Z,99107.27
2018-07-28T00:14:22.503Z,99103.18
2018-07-28T00:16:55.616Z,99108.23
2018-07-28T00:19:41.193Z,99097.49
2018-07-28T00:25:02.605Z,99090.45
2018-07-28T00:27:36.236Z,99092.58
2018-07-28T00:30:18.405Z,99087.87
2018-07-28T00:32:51.374Z,99078.25
2018-07-28T00:42:01.242Z,99082.76
2018-07-28T00:44:39.329Z,99089.73
2018-07-28T00:52:47.618Z,99091.80
2018-07-28T00:58:25.368Z,99069.65
2018-07-28T01:00:59.462Z,99061.97
2018-07-28T01:03:34.578Z,99065.40
2018-07-28T01:06:11.190Z,99059.20
2018-07-28T01:08:49.280Z,99062.63
2018-07-28T01:11:28.048Z,99059.12
2018-07-28T01:13:58.501Z,99056.72
2018-07-28T01:16:29.305Z,99054.73
2018-07-28T01:19:02.803Z,99053.98
2018-07-28T01:21:33.454Z,99048.63
2018-07-28T01:24:04.243Z,99037.86
2018-07-28T01:26:34.539Z,99044.98
2018-07-28T01:29:11.278Z,99045.73
2018-07-28T01:31:43.797Z,99043.41
2018-07-28T01:34:27.872Z,99038.80
2018-07-28T01:37:02.107Z,99038.17
2018-07-28T01:39:34.585Z,99040.80
2018-07-28T01:42:11.473Z,99039.09
2018-07-28T01:44:45.064Z,99029.23
2018-07-28T01:47:25.189Z,99035.59
2018-07-28T01:49:56.694Z,99028.18
2018-07-28T01:52:29.251Z,99024.21
2018-07-28T01:55:10.591Z,99022.33
2018-07-28T01:58:12.010Z,99018.16
2018-07-28T02:01:38.684Z,99010.69
2018-07-28T02:05:05.052Z,99004.64
2018-07-28T02:07:43.580Z,99005.33
2018-07-28T02:10:16.061Z,99003.45
2018-07-28T02:12:47.054Z,98999.95
2018-07-28T02:18:16.969Z,98998.03
2018-07-28T02:20:49.487Z,98996.39
2018-07-28T02:23:21.101Z,98999.25
2018-07-28T02:25:51.744Z,98997.32
2018-07-28T02:28:22.398Z,98998.48
2018-07-28T02:30:54.188Z,98998.48
2018-07-28T02:33:24.828Z,98997.11
2018-07-28T02:35:55.696Z,98989.33
2018-07-28T02:38:27.023Z,98988.61
2018-07-28T02:40:57.752Z,98990.89
2018-07-28T02:43:28.209Z,98997.02
2018-07-28T02:45:58.973Z,99000.89
2018-07-28T02:48:30.359Z,99001.16
2018-07-28T02:51:01.010Z,98923.56
2018-07-28T02:53:31.347Z,98996.91
2018-07-28T02:56:02.286Z,98995.48
2018-07-28T02:58:34.579Z,98997.85
2018-07-28T03:01:05.151Z,98968.54
2018-07-28T03:03:35.575Z,98991.29
2018-07-28T03:06:05.986Z,98990.45
2018-07-28T03:08:36.405Z,98990.75
2018-07-28T03:11:06.979Z,98987.55
2018-07-28T03:13:38.726Z,98990.97
2018-07-28T03:16:14.884Z,98989.67
2018-07-28T03:18:45.393Z,98981.92
2018-07-28T03:21:17.821Z,98984.45
2018-07-28T03:23:48.490Z,98976.53
2018-07-28T03:26:21.106Z,98958.56
2018-07-28T03:28:52.323Z,98969.95
2018-07-28T03:31:24.999Z,98959.81
2018-07-28T03:33:55.549Z,98965.62
2018-07-28T03:36:26.584Z,98905.18
2018-07-28T03:38:57.160Z,98967.32
2018-07-28T03:41:27.826Z,98965.18
2018-07-28T03:43:58.915Z,98965.42
2018-07-28T03:46:30.321Z,98971.49
2018-07-28T03:49:03.536Z,98964.30
2018-07-28T03:51:34.252Z,98966.13
2018-07-28T03:54:06.032Z,98965.45
2018-07-28T03:56:36.761Z,98965.63
2018-07-28T03:59:07.943Z,98957.72
2018-07-28T04:01:38.707Z,98954.92
2018-07-28T04:04:10.881Z,98953.34
2018-07-28T04:06:41.910Z,98965.95
2018-07-28T04:09:14.535Z,98964.36
2018-07-28T04:11:45.475Z,98965.08
2018-07-28T04:14:16.186Z,98963.97
2018-07-28T04:16:46.913Z,98965.47
2018-07-28T04:19:18.034Z,98962.74
2018-07-28T04:21:48.736Z,98966.56
2018-07-28T04:24:26.303Z,98969.55
2018-07-28T04:26:56.822Z,98967.19
2018-07-28T04:29:27.528Z,98981.81
2018-07-28T04:31:58.503Z,98982.20
2018-07-28T04:34:29.817Z,98983.19
2018-07-28T04:37:01.797Z,98972.74
2018-07-28T04:39:32.694Z,98974.74
2018-07-28T04:42:03.375Z,98974.29
2018-07-28T04:44:37.627Z,98982.38
2018-07-28T04:47:10.105Z,98969.53
2018-07-28T04:49:40.548Z,98971.31
2018-07-28T04:52:12.292Z,98976.83
2018-07-28T04:54:43.077Z,98961.16
2018-07-28T04:57:13.945Z,98953.42
2018-07-28T04:59:44.948Z,98961.17
2018-07-28T05:02:17.472Z,98952.99
2018-07-28T05:04:48.734Z,98953.62
2018-07-28T05:07:23.781Z,98944.47
2018-07-28T05:09:54.821Z,98941.11
2018-07-28T05:12:26.366Z,98840.41
2018-07-28T05:14:57.019Z,98931.30
2018-07-28T05:17:27.674Z,98958.55
2018-07-28T05:19:58.759Z,98977.11
2018-07-28T05:22:29.514Z,98948.62
2018-07-28T05:25:00.694Z,98944.91
2018-07-28T05:27:32.897Z,98949.42
2018-07-28T05:30:03.396Z,98957.50
2018-07-28T05:32:33.780Z,98958.39
2018-07-28T05:35:04.441Z,98952.13
2018-07-28T05:37:35.069Z,98951.77
2018-07-28T05:40:06.845Z,98955.79
2018-07-28T05:42:37.370Z,98954.92
2018-07-28T05:47:52.099Z,98959.50
2018-07-28T05:50:24.513Z,98963.66
2018-07-28T05:52:55.240Z,98962.08
2018-07-28T05:55:26.181Z,98957.80
2018-07-28T05:57:58.361Z,98960.76
2018-07-28T06:00:32.759Z,98956.59
2018-07-28T06:03:06.604Z,98954.27
2018-07-28T06:05:38.343Z,98941.30
2018-07-28T06:08:08.948Z,98942.59
2018-07-28T06:10:40.113Z,98922.95
2018-07-28T06:13:11.243Z,98923.81
2018-07-28T06:15:45.594Z,98927.92
2018-07-28T06:18:19.051Z,98929.34
2018-07-28T06:20:50.595Z,98933.28
2018-07-28T06:23:26.435Z,98925.95
2018-07-28T06:25:58.229Z,98921.55
2018-07-28T06:28:31.148Z,98927.41
2018-07-28T06:31:04.879Z,98930.05
2018-07-28T06:33:42.135Z,98930.73
2018-07-28T06:36:12.674Z,98936.27
2018-07-28T06:38:44.734Z,98926.16
2018-07-28T06:41:16.423Z,98928.77
2018-07-28T06:43:49.251Z,98934.64
2018-07-28T06:46:22.404Z,98947.77
2018-07-28T06:48:54.235Z,98978.20
2018-07-28T06:51:26.517Z,98977.59
2018-07-28T06:53:59.662Z,98967.80
2018-07-28T06:56:34.092Z,98977.43
2018-07-28T06:59:09.747Z,98985.02
2018-07-28T07:02:08.195Z,98975.01
2018-07-28T07:04:43.491Z,98993.02
2018-07-28T07:07:25.880Z,98994.03
2018-07-28T07:10:01.270Z,99024.20
2018-07-28T07:13:07.122Z,99048.48
2018-07-28T07:19:26.571Z,99057.19
2018-07-28T07:21:58.889Z,99057.11
2018-07-28T07:24:29.766Z,99049.08
2018-07-28T07:27:00.619Z,99057.35
2018-07-28T07:29:33.079Z,99042.84
2018-07-28T07:32:04.435Z,99061.64
2018-07-28T07:34:35.697Z,99041.38
2018-07-28T07:37:06.450Z,99061.72
2018-07-28T07:39:36.836Z,98988.71
2018-07-28T07:42:09.337Z,99061.79
2018-07-28T07:44:40.695Z,99055.41
2018-07-28T07:47:12.508Z,99030.45
2018-07-28T07:49:43.575Z,99060.66
2018-07-28T07:52:15.983Z,99057.04
2018-07-28T07:54:46.566Z,99090.42
2018-07-28T07:57:17.265Z,99063.48
2018-07-28T07:59:47.672Z,99062.00
2018-07-28T08:02:18.470Z,99062.43
2018-07-28T08:04:48.815Z,99060.79
2018-07-28T08:07:20.041Z,99059.09
2018-07-28T08:09:51.347Z,99063.30
2018-07-28T08:12:22.560Z,99063.93
2018-07-28T08:14:53.183Z,99062.98
2018-07-28T08:17:24.561Z,98978.51
2018-07-28T08:19:55.795Z,99058.56
2018-07-28T08:22:30.095Z,99044.88
2018-07-28T08:25:00.487Z,99030.31
2018-07-28T08:27:33.425Z,99013.81
2018-07-28T08:30:07.857Z,99027.79
2018-07-28T08:32:40.088Z,99020.44
2018-07-28T08:35:11.073Z,99028.50
2018-07-28T08:37:41.935Z,99025.73
2018-07-28T08:40:14.812Z,99031.17
2018-07-28T08:42:45.260Z,99010.78
2018-07-28T08:45:17.735Z,99019.47
2018-07-28T08:47:50.141Z,99018.91
2018-07-28T08:50:22.306Z,99030.99
2018-07-28T08:52:55.547Z,99045.95
2018-07-28T08:55:27.863Z,99039.61
2018-07-28T08:57:58.589Z,99050.66
2018-07-28T09:00:28.951Z,99061.30
2018-07-28T09:03:00.460Z,99058.72
2018-07-28T09:05:30.920Z,99055.67
2018-07-28T09:08:08.587Z,99050.11
2018-07-28T09:10:41.507Z,99049.27
2018-07-28T09:13:15.754Z,98973.73
2018-07-28T09:15:48.020Z,99065.15
2018-07-28T09:18:19.037Z,99068.09
2018-07-28T09:20:50.376Z,99070.61
2018-07-28T09:23:24.948Z,99076.22
2018-07-28T09:25:55.449Z,99068.42
2018-07-28T09:28:28.730Z,99074.23
2018-07-28T09:30:59.127Z,99091.91
2018-07-28T09:33:29.590Z,99090.81
2018-07-28T09:36:00.545Z,99092.79
2018-07-28T09:38:30.899Z,99091.09
2018-07-28T09:41:01.738Z,99091.05
2018-07-28T09:43:32.435Z,99095.81
2018-07-28T09:46:03.553Z,99092.98
2018-07-28T09:48:38.672Z,99103.81
2018-07-28T09:51:09.954Z,99108.12
2018-07-28T09:53:41.472Z,99031.80
2018-07-28T09:56:11.907Z,99104.93
2018-07-28T09:58:42.550Z,99110.31
2018-07-28T10:01:20.066Z,99118.77
2018-07-28T10:03:50.520Z,99107.80
2018-07-28T10:06:20.809Z,99114.60
2018-07-28T10:08:51.378Z,99112.91
2018-07-28T10:11:22.375Z,99119.03
2018-07-28T10:13:53.735Z,99118.16
2018-07-28T10:16:24.128Z,99109.84
2018-07-28T10:18:55.847Z,99109.06
2018-07-28T10:21:28.634Z,99104.95
2018-07-28T10:24:06.344Z,99109.58
2018-07-28T10:26:38.406Z,99100.67
2018-07-28T10:29:11.445Z,99109.67
2018-07-28T10:31:44.884Z,99103.83
2018-07-28T10:34:22.322Z,99094.74
2018-07-28T10:36:57.252Z,99104.38
2018-07-28T10:39:30.753Z,99078.43
2018-07-28T10:42:02.210Z,99093.14
2018-07-28T10:44:39.507Z,99096.78
2018-07-28T10:47:11.755Z,99097.93
2018-07-28T10:49:45.986Z,99095.51
2018-07-28T10:52:21.145Z,99093.67
2018-07-28T10:54:53.567Z,99099.93
2018-07-28T10:57:26.439Z,99103.19
2018-07-28T10:59:59.317Z,99104.61
2018-07-28T11:02:31.681Z,99100.73
2018-07-28T11:05:04.535Z,99097.63
2018-07-28T11:07:43.332Z,99096.40
2018-07-28T11:10:18.424Z,99093.13
2018-07-28T11:12:51.650Z,99099.25
2018-07-28T11:15:23.669Z,99104.45
2018-07-28T11:17:57.277Z,99107.53
2018-07-28T11:20:30.048Z,99100.34
2018-07-28T11:23:01.587Z,99103.77
2018-07-28T11:25:34.058Z,99102.47
2018-07-28T11:28:09.365Z,99097.44
2018-07-28T11:30:40.852Z,99082.84
2018-07-28T11:33:23.890Z,99097.77
2018-07-28T11:36:08.001Z,99098.08
2018-07-28T11:38:50.225Z,99089.58
2018-07-28T11:41:32.222Z,99092.95
2018-07-28T11:44:15.580Z,99078.09
2018-07-28T11:46:49.556Z,99079.26
2018-07-28T11:49:21.094Z,99081.20
2018-07-28T11:51:52.883Z,99080.70
2018-07-28T11:54:24.863Z,99087.74
2018-07-28T11:56:56.194Z,99094.89
2018-07-28T11:59:28.763Z,99087.94
2018-07-28T12:02:01.103Z,99086.75
2018-07-28T12:04:34.679Z,99085.89
2018-07-28T12:07:07.158Z,99092.41
2018-07-28T12:09:39.348Z,99084.56
2018-07-28T12:12:10.584Z,99091.15
2018-07-28T12:14:43.446Z,99085.28
2018-07-28T12:17:14.783Z,99091.45
2018-07-28T12:19:47.310Z,99085.30
2018-07-28T12:22:19.826Z,99089.41
2018-07-28T12:24:51.386Z,99084.44
2018-07-28T12:27:22.428Z,99086.72
2018-07-28T12:29:53.822Z,99077.06
2018-07-28T12:32:28.710Z,99094.56
2018-07-28T12:35:04.922Z,99086.75
2018-07-28T12:37:36.772Z,99093.44
2018-07-28T12:40:09.907Z,99098.23
2018-07-28T12:42:41.392Z,99101.88
2018-07-28T12:45:13.585Z,99094.72
2018-07-28T12:47:49.303Z,99096.20
2018-07-28T12:50:27.584Z,99097.59
2018-07-28T12:52:58.853Z,99077.72
2018-07-28T12:55:30.879Z,99098.83
2018-07-28T12:58:02.261Z,99098.41
2018-07-28T13:00:35.332Z,99092.86
2018-07-28T13:03:07.738Z,99086.03
2018-07-28T13:05:39.303Z,99091.23
2018-07-28T13:08:11.715Z,99088.45
2018-07-28T13:10:45.310Z,99090.84
2018-07-28T13:13:17.756Z,99088.57
2018-07-28T13:15:49.844Z,99088.41
2018-07-28T13:18:21.122Z,99070.73
2018-07-28T13:20:53.396Z,99059.17
2018-07-28T13:23:25.516Z,99065.77
2018-07-28T13:25:57.863Z,99078.75
2018-07-28T13:28:30.545Z,99072.72
2018-07-28T13:31:02.080Z,99047.63
2018-07-28T13:33:33.567Z,99060.16
2018-07-28T13:36:07.586Z,99079.45
2018-07-28T13:38:39.130Z,99075.20
2018-07-28T13:41:11.660Z,99115.73
2018-07-28T13:43:44.661Z,99134.95
2018-07-28T13:46:18.235Z,99180.16
2018-07-28T13:48:50.534Z,99125.67
2018-07-28T13:51:22.106Z,99123.30
2018-07-28T13:54:10.092Z,99121.02
2018-07-28T13:56:44.755Z,99121.94
2018-07-28T13:59:16.497Z,99130.34
2018-07-28T14:01:49.792Z,99134.80
2018-07-28T14:04:20.914Z,99129.25
2018-07-28T14:06:52.987Z,99133.84
2018-07-28T14:09:25.529Z,99134.63
2018-07-28T14:11:57.573Z,99130.83
2018-07-28T14:14:30.349Z,99122.60
2018-07-28T14:17:02.610Z,99122.75
2018-07-28T14:19:34.745Z,99119.94
2018-07-28T14:22:06.591Z,99127.08
2018-07-28T14:24:38.301Z,99121.38
2018-07-28T14:27:12.597Z,99125.07
2018-07-28T14:29:44.593Z,99129.03
2018-07-28T14:32:16.706Z,99092.20
2018-07-28T14:34:50.110Z,99115.35
2018-07-28T14:37:22.307Z,99118.19
2018-07-28T14:39:54.491Z,99123.66
2018-07-28T14:42:26.273Z,99121.91
2018-07-28T14:44:58.484Z,99121.72
2018-07-28T14:47:31.395Z,99136.78
2018-07-28T14:50:04.037Z,99143.15
2018-07-28T14:52:37.682Z,99146.91
2018-07-28T14:55:12.577Z,99151.38
2018-07-28T14:57:43.279Z,99142.91
2018-07-28T15:00:20.431Z,99140.41
2018-07-28T15:02:51.093Z,99140.97
2018-07-28T15:05:24.092Z,99136.81
2018-07-28T15:07:54.479Z,99143.02
2018-07-28T15:10:32.314Z,99147.06
2018-07-28T15:13:04.473Z,99147.17
2018-07-28T15:15:36.741Z,99156.25
2018-07-28T15:18:08.349Z,99163.03
2018-07-28T15:20:38.669Z,99166.09
2018-07-28T15:23:12.774Z,99169.81
2018-07-28T15:25:43.673Z,99175.27
2018-07-28T15:28:16.328Z,99173.58
2018-07-28T15:30:47.537Z,99169.88
2018-07-28T15:33:17.971Z,99172.82
2018-07-28T15:35:48.684Z,99168.42
2018-07-28T15:38:19.135Z,99161.50
2018-07-28T15:40:49.609Z,99170.59
2018-07-28T15:43:25.634Z,99170.22
2018-07-28T15:46:00.349Z,99172.05
2018-07-28T15:48:32.849Z,99167.69
2018-07-28T15:51:03.244Z,99167.61
2018-07-28T15:53:34.527Z,99165.59
2018-07-28T15:56:08.794Z,99161.55
2018-07-28T15:58:40.267Z,99158.80
2018-07-28T16:01:12.642Z,99161.05
2018-07-28T16:03:46.859Z,99169.66
2018-07-28T16:06:19.750Z,99162.14
2018-07-28T16:08:52.879Z,99156.80
2018-07-28T16:11:28.257Z,99158.78
2018-07-28T16:14:05.602Z,99160.40
2018-07-28T16:16:40.367Z,99159.12
2018-07-28T16:19:11.284Z,99169.25
2018-07-28T16:21:43.961Z,99169.02
2018-07-28T16:24:17.667Z,99169.86
2018-07-28T16:26:49.775Z,99170.91
2018-07-28T16:29:22.575Z,99167.53
2018-07-28T16:31:59.524Z,99170.09
2018-07-28T16:34:32.004Z,99169.65
2018-07-28T16:37:03.782Z,99173.59
2018-07-28T16:39:35.072Z,99180.42
2018-07-28T16:42:12.966Z,99184.80
2018-07-28T16:44:44.615Z,99181.12
2018-07-28T16:47:17.414Z,99191.13
2018-07-28T16:49:51.308Z,99191.03
2018-07-28T16:52:26.498Z,99191.53
2018-07-28T16:55:00.048Z,99191.50
2018-07-28T16:57:33.833Z,99194.55
2018-07-28T17:00:09.362Z,99200.77
2018-07-28T17:02:42.866Z,99204.67
2018-07-28T17:05:17.253Z,99205.59
2018-07-28T17:07:50.880Z,99211.85
2018-07-28T17:10:23.481Z,99217.78
2018-07-28T17:12:56.449Z,99221.36
2018-07-28T17:15:33.534Z,99220.04
2018-07-28T17:18:05.475Z,99232.07
2018-07-28T17:20:39.264Z,99229.73
2018-07-28T17:23:13.109Z,99240.19
2018-07-28T17:25:45.633Z,99241.11
2018-07-28T17:28:23.302Z,99251.66
2018-07-28T17:31:04.032Z,99256.39
2018-07-28T17:33:42.289Z,99261.56
2018-07-28T17:36:20.109Z,99262.74
2018-07-28T17:38:56.022Z,99261.31
2018-07-28T17:41:30.590Z,99278.61
2018-07-28T17:44:04.597Z,99277.70
2018-07-28T17:46:38.633Z,99274.08
2018-07-28T17:49:11.449Z,99272.69
2018-07-28T17:51:46.841Z,99285.23
2018-07-28T17:54:23.569Z,99287.92
2018-07-28T17:56:56.442Z,99266.55
2018-07-28T17:59:35.229Z,99286.23
2018-07-28T18:02:08.082Z,99303.32
2018-07-28T18:04:41.947Z,99310.83
2018-07-28T18:07:13.242Z,99307.81
2018-07-28T18:09:44.525Z,99315.55
2018-07-28T18:12:16.988Z,99322.01
2018-07-28T18:14:51.003Z,99319.30
2018-07-28T18:17:24.471Z,99316.66
2018-07-28T18:19:56.406Z,99323.31
2018-07-28T18:22:29.619Z,99316.10
2018-07-28T18:25:05.926Z,99326.48
2018-07-28T18:27:38.079Z,99333.90
2018-07-28T18:30:11.109Z,99335.19
2018-07-28T18:32:44.370Z,99341.70
2018-07-28T18:35:17.273Z,99348.91
2018-07-28T18:37:51.772Z,99350.64
2018-07-28T18:43:01.989Z,99357.42
2018-07-28T18:45:33.853Z,99357.08
2018-07-28T18:48:10.112Z,99355.52
2018-07-28T18:50:41.499Z,99353.56
2018-07-28T18:53:13.587Z,99357.38
2018-07-28T18:55:49.659Z,99361.52
2018-07-28T18:58:23.554Z,99358.21
2018-07-28T19:00:55.649Z,99355.80
2018-07-28T19:03:28.956Z,99351.89
2018-07-28T19:06:02.855Z,99347.36
2018-07-28T19:08:36.617Z,99361.45
2018-07-28T19:11:14.328Z,99371.82
2018-07-28T19:13:50.770Z,99376.89
2018-07-28T19:16:22.195Z,99382.56
2018-07-28T19:18:59.312Z,99386.41
2018-07-28T19:21:31.452Z,99398.05
2018-07-28T19:24:05.420Z,99402.30
2018-07-28T19:26:39.297Z,99400.43
2018-07-28T19:29:17.773Z,99418.11
2018-07-28T19:31:51.711Z,99412.67
2018-07-28T19:34:26.380Z,99423.02
2018-07-28T19:37:08.516Z,99412.59
2018-07-28T19:39:43.181Z,99428.92
2018-07-28T19:42:20.643Z,99427.48
2018-07-28T19:44:55.428Z,99430.91
2018-07-28T19:47:32.446Z,99434.93
2018-07-28T19:50:13.361Z,99437.59
2018-07-28T19:52:50.351Z,99447.34
2018-07-28T19:55:24.460Z,99449.73
2018-07-28T19:57:57.293Z,99450.34
2018-07-28T20:00:29.342Z,99454.59
2018-07-28T20:03:02.188Z,99460.81
2018-07-28T20:05:34.364Z,99461.70
2018-07-28T20:08:08.710Z,99445.86
2018-07-28T20:10:41.278Z,99471.20
2018-07-28T20:13:14.461Z,99476.31
2018-07-28T20:15:47.941Z,99473.97
2018-07-28T20:18:20.863Z,99480.70
2018-07-28T20:21:09.515Z,99479.73
2018-07-28T20:23:42.369Z,99482.46
2018-07-28T20:26:17.500Z,99489.24
2018-07-28T20:28:55.205Z,99491.57
2018-07-28T20:31:28.524Z,99492.88
2018-07-28T20:34:01.685Z,99491.84
2018-07-28T20:36:36.193Z,99498.26
2018-07-28T20:39:11.719Z,99500.83
2018-07-28T20:41:48.692Z,99493.30
2018-07-28T20:44:22.355Z,99502.64
2018-07-28T20:46:57.349Z,99493.59
2018-07-28T20:49:31.477Z,99507.42
2018-07-28T20:52:11.066Z,99512.83
2018-07-28T20:54:43.591Z,99508.97
2018-07-28T20:57:15.854Z,99509.47
2018-07-28T20:59:53.165Z,99510.17
2018-07-28T21:02:27.327Z,99517.44
2018-07-28T21:05:04.442Z,99514.88
2018-07-28T21:07:41.933Z,99523.44
2018-07-28T21:10:18.193Z,99523.92
2018-07-28T21:12:54.059Z,99518.98
2018-07-28T21:15:30.936Z,99512.16
2018-07-28T21:18:05.375Z,99520.15
2018-07-28T21:20:40.222Z,99522.88
2018-07-28T21:23:12.486Z,99525.12
2018-07-28T21:25:47.898Z,99522.14
2018-07-28T21:28:19.680Z,99525.66
2018-07-28T21:30:51.445Z,99529.83
2018-07-28T21:33:27.044Z,99539.53
2018-07-28T21:35:58.495Z,99538.19
2018-07-28T21:38:31.490Z,99532.17
2018-07-28T21:41:04.814Z,99538.59
2018-07-28T21:43:37.093Z,99541.28
2018-07-28T21:46:09.137Z,99540.45
2018-07-28T21:48:41.823Z,99523.13
2018-07-28T21:51:14.578Z,99532.66
2018-07-28T21:53:47.426Z,99535.37
2018-07-28T21:56:22.714Z,99539.28
2018-07-28T21:58:56.235Z,99532.83
2018-07-28T22:01:28.200Z,99535.50
2018-07-28T22:04:03.668Z,99540.02
2018-07-28T22:06:35.767Z,99537.67
2018-07-28T22:09:08.293Z,99544.92
2018-07-28T22:11:44.009Z,99543.30
2018-07-28T22:14:19.480Z,99547.08
2018-07-28T22:16:51.971Z,99547.08
2018-07-28T22:19:24.024Z,99551.13
2018-07-28T22:21:56.134Z,99563.34
2018-07-28T22:24:31.084Z,99564.77
2018-07-28T22:27:03.510Z,99561.40
2018-07-28T22:29:36.625Z,99568.83
2018-07-28T22:32:11.417Z,99573.39
2018-07-28T22:34:43.502Z,99575.84
2018-07-28T22:37:15.616Z,99568.94
2018-07-28T22:39:48.385Z,99573.11
2018-07-28T22:42:21.174Z,99578.20
2018-07-28T22:45:00.966Z,99578.50
2018-07-28T22:47:33.143Z,99574.70
2018-07-28T22:50:06.356Z,99573.67
2018-07-28T22:52:39.411Z,99572.89
2018-07-28T22:55:11.795Z,99575.38
2018-07-28T22:57:43.419Z,99567.64
2018-07-28T23:00:19.333Z,99555.42
2018-07-28T23:02:52.678Z,99564.51
2018-07-28T23:05:24.717Z,99575.41
2018-07-28T23:07:57.819Z,99574.59
2018-07-28T23:10:30.740Z,99587.94
2018-07-28T23:13:04.382Z,99580.25
2018-07-28T23:15:37.560Z,99582.22
2018-07-28T23:18:09.953Z,99589.09
2018-07-28T23:20:50.308Z,99590.20
2018-07-28T23:23:22.880Z,99588.60
2018-07-28T23:25:55.029Z,99590.49
2018-07-28T23:28:27.957Z,99593.80
2018-07-28T23:31:00.006Z,99586.96
2018-07-28T23:33:32.491Z,99586.98
2018-07-28T23:36:06.594Z,99590.55
2018-07-28T23:38:40.938Z,99593.54
2018-07-28T23:41:14.787Z,99605.27
2018-07-28T23:43:46.280Z,99602.53
2018-07-28T23:46:22.572Z,99606.91
2018-07-28T23:48:57.239Z,99604.99
2018-07-28T23:51:30.280Z,99603.63
2018-07-28T23:54:02.564Z,99601.18
2018-07-28T23:56:36.460Z,99605.81
2018-07-28T23:59:10.749Z,99604.17
